Time;durP1;ratioP1;P1;durP2;ratioP2;P2;SDS_P1;SDS_P2;PMS_P1;PMS_P2;Temp;Humidity;BMP_temperature;BMP_pressure;BME280_temperature;BME280_humidity;BME280_pressure;Samples;Min_cycle;Max_cycle;Signal;HPM_P1;HPM_P2
2021/05/16 00:02:13;;;;;;;2.83;1.00;;;8.90;99.90;;;;;;5094579;28;20246;-39
2021/05/16 00:04:40;;;;;;;3.67;1.30;;;9.00;99.90;;;;;;5094429;28;20253;-38
2021/05/16 00:07:08;;;;;;;2.38;1.92;;;8.90;99.90;;;;;;5094217;28;20561;-39
2021/05/16 00:09:35;;;;;;;4.00;1.50;;;8.80;99.90;;;;;;5094604;28;20238;-38
2021/05/16 00:12:04;;;;;;;2.17;1.20;;;8.80;99.90;;;;;;5093959;28;20633;-38
2021/05/16 00:14:31;;;;;;;1.60;1.25;;;8.80;99.90;;;;;;5094346;28;20310;-38
2021/05/16 00:16:59;;;;;;;2.20;1.52;;;8.80;99.90;;;;;;5094200;28;20207;-38
2021/05/16 00:19:27;;;;;;;1.45;1.00;;;8.80;99.90;;;;;;5093778;28;20258;-39
2021/05/16 00:21:55;;;;;;;1.80;1.17;;;8.80;99.90;;;;;;5093898;28;20253;-38
2021/05/16 00:24:23;;;;;;;1.30;1.20;;;8.80;99.90;;;;;;5093574;28;20230;-39
2021/05/16 00:26:51;;;;;;;2.70;2.17;;;8.80;99.90;;;;;;5093940;28;20211;-38
2021/05/16 00:29:18;;;;;;;2.03;1.83;;;8.80;99.90;;;;;;5093905;28;20659;-39
2021/05/16 00:31:46;;;;;;;2.30;1.30;;;8.80;99.90;;;;;;5093684;28;20254;-38
2021/05/16 00:34:13;;;;;;;2.08;1.33;;;8.80;99.90;;;;;;5093258;28;20657;-39
2021/05/16 00:36:42;;;;;;;1.40;1.10;;;8.70;99.90;;;;;;5093406;28;20242;-38
2021/05/16 00:39:09;;;;;;;1.40;1.30;;;8.80;99.90;;;;;;5093086;28;20310;-38
2021/05/16 00:41:37;;;;;;;2.25;1.40;;;8.80;99.90;;;;;;5093460;28;20293;-38
2021/05/16 00:44:04;;;;;;;2.47;1.50;;;8.80;99.90;;;;;;5093496;28;20645;-38
2021/05/16 00:46:32;;;;;;;3.80;1.33;;;8.80;99.90;;;;;;5093240;28;20210;-38
2021/05/16 00:49:00;;;;;;;1.60;1.50;;;8.80;99.90;;;;;;5093281;28;20261;-39
2021/05/16 00:51:27;;;;;;;1.70;1.40;;;8.80;99.90;;;;;;5093129;28;20207;-38
2021/05/16 00:53:56;;;;;;;3.53;1.80;;;8.80;99.90;;;;;;5092810;28;20677;-38
2021/05/16 00:56:23;;;;;;;3.67;1.33;;;8.80;99.90;;;;;;5092976;28;20264;-38
2021/05/16 00:58:51;;;;;;;2.05;1.77;;;8.80;99.90;;;;;;5092439;28;20219;-39
2021/05/16 01:01:20;;;;;;;2.55;1.83;;;8.80;99.90;;;;;;5092885;28;20665;-38
2021/05/16 01:03:47;;;;;;;4.80;2.50;;;8.80;99.90;;;;;;5093037;28;20267;-38
2021/05/16 01:06:15;;;;;;;1.60;1.40;;;8.80;99.90;;;;;;5093054;28;20206;-38
2021/05/16 01:08:46;;;;;;;0.98;0.88;;;8.80;99.90;;;;;;5093089;28;20241;-38
2021/05/16 01:11:14;;;;;;;2.08;1.20;;;8.80;99.90;;;;;;5093052;28;20225;-39
2021/05/16 01:13:43;;;;;;;4.07;1.35;;;8.80;99.90;;;;;;5093002;28;20230;-39
2021/05/16 01:16:11;;;;;;;2.85;1.40;;;8.80;99.90;;;;;;5092749;28;20647;-39
2021/05/16 01:18:38;;;;;;;2.05;1.08;;;8.70;99.90;;;;;;5092719;28;20203;-39
2021/05/16 01:21:07;;;;;;;1.38;0.90;;;8.70;99.90;;;;;;5092410;28;20583;-40
2021/05/16 01:23:46;;;;;;;1.23;0.93;;;8.70;99.90;;;;;;5092590;28;20232;-39
2021/05/16 01:26:14;;;;;;;1.00;0.90;;;8.70;99.90;;;;;;5092797;28;20257;-40
2021/05/16 01:28:43;;;;;;;2.70;1.00;;;8.70;99.90;;;;;;5092599;28;20211;-38
2021/05/16 01:31:11;;;;;;;1.60;0.98;;;8.70;99.90;;;;;;5092450;28;20238;-38
2021/05/16 01:33:39;;;;;;;1.95;1.25;;;8.70;99.90;;;;;;5092474;28;20305;-39
2021/05/16 01:36:07;;;;;;;1.45;1.10;;;8.70;99.90;;;;;;5092600;28;20289;-38
2021/05/16 01:38:35;;;;;;;2.08;0.90;;;8.70;99.90;;;;;;5092430;28;20249;-39
2021/05/16 01:41:03;;;;;;;1.60;0.90;;;8.80;99.90;;;;;;5092413;28;20226;-38
2021/05/16 01:43:35;;;;;;;1.02;0.82;;;8.80;99.90;;;;;;5092312;28;20426;-38
2021/05/16 01:46:04;;;;;;;1.67;1.10;;;8.80;99.90;;;;;;5092109;28;20583;-39
2021/05/16 01:48:32;;;;;;;1.88;1.00;;;8.80;99.90;;;;;;5092455;28;20217;-39
2021/05/16 01:50:59;;;;;;;1.60;1.00;;;8.70;99.90;;;;;;5092291;28;20552;-38
2021/05/16 01:53:27;;;;;;;2.40;1.05;;;8.70;99.90;;;;;;5092095;28;20295;-39
2021/05/16 01:55:55;;;;;;;0.77;0.70;;;8.60;99.90;;;;;;5092186;28;20245;-38
2021/05/16 01:58:24;;;;;;;3.38;0.82;;;8.60;99.90;;;;;;5091989;28;20234;-39
2021/05/16 02:00:51;;;;;;;1.33;0.90;;;8.60;99.90;;;;;;5092247;28;20713;-39
2021/05/16 02:03:19;;;;;;;2.75;1.08;;;8.50;99.90;;;;;;5092255;28;20281;-39
2021/05/16 02:05:49;;;;;;;1.90;1.17;;;8.50;99.90;;;;;;5092032;28;20697;-38
2021/05/16 02:08:18;;;;;;;7.70;1.05;;;8.50;99.90;;;;;;5092158;28;20696;-39
2021/05/16 02:10:46;;;;;;;1.13;0.77;;;8.50;99.90;;;;;;5090746;28;20248;-38
2021/05/16 02:13:14;;;;;;;2.80;0.98;;;8.50;99.90;;;;;;5092071;28;20206;-38
2021/05/16 02:15:43;;;;;;;0.95;0.90;;;8.40;99.90;;;;;;5092134;28;20210;-38
2021/05/16 02:18:15;;;;;;;1.52;0.90;;;8.40;99.90;;;;;;5092014;28;20289;-38
2021/05/16 02:20:43;;;;;;;0.98;0.88;;;8.40;99.90;;;;;;5091673;28;20230;-38
2021/05/16 02:23:11;;;;;;;2.03;1.23;;;8.50;99.90;;;;;;5091885;28;20211;-38
2021/05/16 02:25:38;;;;;;;1.35;0.82;;;8.40;99.90;;;;;;5091823;28;20242;-38
2021/05/16 02:28:06;;;;;;;1.42;0.90;;;8.40;99.90;;;;;;5091784;28;20210;-40
2021/05/16 02:30:34;;;;;;;1.88;0.90;;;8.40;99.90;;;;;;5091938;28;20234;-40
2021/05/16 02:33:04;;;;;;;1.60;1.13;;;8.50;99.90;;;;;;5091792;28;20251;-38
2021/05/16 02:35:32;;;;;;;1.60;1.15;;;8.50;99.90;;;;;;5091679;28;20301;-38
2021/05/16 02:37:59;;;;;;;0.80;0.77;;;8.50;99.90;;;;;;5091606;28;20305;-38
2021/05/16 02:40:27;;;;;;;1.30;0.80;;;8.50;99.90;;;;;;5091479;28;20353;-38
2021/05/16 02:42:55;;;;;;;1.10;1.05;;;8.50;99.90;;;;;;5091543;28;20210;-37
2021/05/16 02:45:23;;;;;;;1.55;1.00;;;8.50;99.90;;;;;;5091590;28;20580;-38
2021/05/16 02:47:51;;;;;;;2.25;0.98;;;8.50;99.90;;;;;;5091354;28;20242;-37
2021/05/16 02:50:19;;;;;;;1.00;0.90;;;8.50;99.90;;;;;;5091533;28;20203;-38
2021/05/16 02:52:47;;;;;;;0.70;0.70;;;8.50;99.90;;;;;;5091487;28;20301;-38
2021/05/16 02:55:14;;;;;;;1.45;1.05;;;8.50;99.90;;;;;;5091365;28;20301;-38
2021/05/16 02:57:42;;;;;;;1.20;1.10;;;8.60;99.90;;;;;;5091803;28;20619;-38
2021/05/16 03:00:10;;;;;;;1.58;1.10;;;8.60;99.90;;;;;;5091303;28;20227;-38
2021/05/16 03:02:38;;;;;;;5.63;1.15;;;8.60;99.90;;;;;;5091346;28;20737;-38
2021/05/16 03:05:07;;;;;;;1.70;1.15;;;8.70;99.90;;;;;;5091280;28;20234;-38
2021/05/16 03:07:35;;;;;;;2.55;0.95;;;8.70;99.90;;;;;;5091571;28;20202;-39
2021/05/16 03:10:03;;;;;;;0.85;0.80;;;8.70;99.90;;;;;;5091548;28;20211;-39
2021/05/16 03:12:31;;;;;;;4.72;0.85;;;8.80;99.90;;;;;;5092518;28;20297;-38
2021/05/16 03:14:58;;;;;;;1.98;1.20;;;8.80;99.90;;;;;;5091841;28;20206;-39
2021/05/16 03:17:25;;;;;;;2.80;1.10;;;8.80;99.90;;;;;;5091416;28;20533;-38
2021/05/16 03:19:53;;;;;;;1.20;1.10;;;8.90;99.90;;;;;;5091655;28;20288;-39
2021/05/16 03:22:20;;;;;;;1.77;1.10;;;8.90;99.90;;;;;;5094013;28;20271;-40
2021/05/16 03:24:49;;;;;;;2.40;1.02;;;8.90;99.90;;;;;;5094937;28;20242;-38
2021/05/16 03:27:16;;;;;;;2.13;1.02;;;9.00;99.90;;;;;;5095036;28;20673;-38
2021/05/16 03:29:44;;;;;;;2.00;1.00;;;9.00;99.90;;;;;;5095132;28;20309;-38
2021/05/16 03:32:11;;;;;;;3.47;1.23;;;9.00;99.90;;;;;;5094887;28;20656;-38
2021/05/16 03:34:39;;;;;;;1.30;1.20;;;9.00;99.90;;;;;;5095224;28;20245;-38
2021/05/16 03:37:06;;;;;;;2.45;1.02;;;9.00;99.90;;;;;;5094811;28;20246;-38
2021/05/16 03:39:34;;;;;;;3.95;1.88;;;8.90;99.90;;;;;;5094953;28;20202;-38
2021/05/16 03:42:03;;;;;;;1.35;1.00;;;8.90;99.90;;;;;;5094879;28;20317;-38
2021/05/16 03:44:31;;;;;;;2.55;1.95;;;8.90;99.90;;;;;;5094702;28;20301;-40
2021/05/16 03:46:58;;;;;;;1.88;1.08;;;8.90;99.90;;;;;;5094974;28;20238;-39
2021/05/16 03:49:26;;;;;;;1.17;0.90;;;8.90;99.90;;;;;;5094551;28;20665;-38
2021/05/16 03:51:54;;;;;;;2.67;0.82;;;8.90;99.90;;;;;;5094469;28;20242;-39
2021/05/16 03:54:22;;;;;;;2.65;1.42;;;8.90;99.90;;;;;;5094568;28;20657;-38
2021/05/16 03:56:49;;;;;;;1.75;1.13;;;9.00;99.90;;;;;;5094593;28;20238;-38
2021/05/16 03:59:18;;;;;;;1.30;0.75;;;8.90;99.90;;;;;;5094298;28;20210;-38
2021/05/16 04:01:45;;;;;;;2.10;1.10;;;8.90;99.90;;;;;;5094362;28;20262;-38
2021/05/16 04:04:13;;;;;;;1.67;0.90;;;8.90;99.90;;;;;;5094093;28;20249;-39
2021/05/16 04:06:40;;;;;;;1.85;0.80;;;9.00;99.90;;;;;;5094270;28;20238;-40
2021/05/16 04:09:08;;;;;;;3.85;3.10;;;9.00;99.90;;;;;;5094159;28;20242;-40
2021/05/16 04:11:35;;;;;;;4.00;3.15;;;9.00;99.90;;;;;;5094252;28;20207;-39
2021/05/16 04:14:03;;;;;;;1.80;1.17;;;9.00;99.90;;;;;;5094353;28;20249;-39
2021/05/16 04:16:32;;;;;;;13.18;11.52;;;9.00;99.90;;;;;;5094334;28;20557;-38
2021/05/16 04:18:59;;;;;;;3.58;1.95;;;9.10;99.90;;;;;;5094248;28;20314;-39
2021/05/16 04:21:27;;;;;;;2.30;1.00;;;9.20;99.90;;;;;;5093910;28;20412;-38
2021/05/16 04:23:54;;;;;;;3.00;2.00;;;9.30;99.90;;;;;;5093849;28;20226;-41
2021/05/16 04:26:22;;;;;;;2.03;1.20;;;9.30;99.90;;;;;;5094277;28;20613;-38
2021/05/16 04:28:49;;;;;;;3.42;1.70;;;9.40;99.90;;;;;;5094043;28;20206;-38
2021/05/16 04:31:17;;;;;;;1.45;1.30;;;9.50;99.90;;;;;;5094333;28;20302;-38
2021/05/16 04:33:45;;;;;;;1.55;1.13;;;9.60;99.90;;;;;;5093037;28;20214;-40
2021/05/16 04:36:13;;;;;;;6.40;4.22;;;9.70;99.90;;;;;;5093732;28;20224;-38
2021/05/16 04:38:40;;;;;;;8.23;6.45;;;9.80;99.90;;;;;;5093780;28;20288;-38
2021/05/16 04:41:07;;;;;;;2.85;2.13;;;9.80;99.90;;;;;;5093729;28;20269;-38
2021/05/16 04:43:35;;;;;;;6.25;4.53;;;9.90;99.90;;;;;;5093593;28;20634;-38
2021/05/16 04:46:02;;;;;;;2.22;1.30;;;10.00;99.90;;;;;;5093765;28;20297;-41
2021/05/16 04:48:30;;;;;;;3.60;2.65;;;10.20;99.90;;;;;;5093361;28;20242;-38
2021/05/16 04:50:58;;;;;;;2.90;1.95;;;10.40;99.90;;;;;;5093524;28;20290;-40
2021/05/16 04:53:29;;;;;;;4.22;1.98;;;10.60;99.90;;;;;;5093356;28;20301;-38
2021/05/16 04:55:56;;;;;;;1.83;1.13;;;10.70;99.90;;;;;;5093623;28;20351;-38
2021/05/16 04:58:24;;;;;;;2.45;1.13;;;10.70;99.90;;;;;;5093621;28;20238;-38
2021/05/16 05:00:51;;;;;;;2.38;0.93;;;10.80;99.90;;;;;;5093357;28;20669;-38
2021/05/16 05:03:21;;;;;;;3.38;2.53;;;10.80;99.90;;;;;;5093293;28;20314;-38
2021/05/16 05:05:52;;;;;;;11.73;6.40;;;10.80;99.90;;;;;;5093154;28;20217;-39
2021/05/16 05:08:20;;;;;;;2.28;0.70;;;10.80;99.90;;;;;;5093506;28;20246;-40
2021/05/16 05:10:48;;;;;;;2.45;1.13;;;10.80;99.90;;;;;;5093232;28;20205;-39
2021/05/16 05:13:16;;;;;;;1.23;0.98;;;10.70;99.90;;;;;;5093139;28;20245;-38
2021/05/16 05:15:43;;;;;;;1.08;0.77;;;10.70;99.90;;;;;;5093048;28;20297;-39
2021/05/16 05:18:11;;;;;;;3.88;1.98;;;10.80;99.90;;;;;;5093066;28;20293;-39
2021/05/16 05:20:38;;;;;;;2.63;1.33;;;10.80;99.90;;;;;;5092962;28;20265;-39
2021/05/16 05:23:06;;;;;;;1.95;1.10;;;10.80;99.90;;;;;;5093145;28;20217;-42
2021/05/16 05:25:34;;;;;;;2.67;1.27;;;10.80;99.90;;;;;;5092748;28;20273;-39
2021/05/16 05:28:02;;;;;;;2.28;1.10;;;10.80;99.90;;;;;;5093082;28;20289;-39
2021/05/16 05:30:29;;;;;;;3.00;2.20;;;10.80;99.90;;;;;;5092591;28;20229;-38
2021/05/16 05:32:57;;;;;;;4.22;2.20;;;10.80;99.90;;;;;;5092531;28;20653;-39
2021/05/16 05:35:24;;;;;;;1.20;0.90;;;10.80;99.90;;;;;;5092846;28;20239;-38
2021/05/16 05:37:52;;;;;;;8.18;6.28;;;10.70;99.90;;;;;;5093395;28;20293;-39
2021/05/16 05:40:19;;;;;;;20.45;13.45;;;10.70;99.90;;;;;;5093169;28;20214;-39
2021/05/16 05:42:48;;;;;;;22.35;13.55;;;10.70;99.90;;;;;;5092694;28;20236;-39
2021/05/16 05:45:15;;;;;;;5.20;3.47;;;10.70;99.90;;;;;;5093292;28;20217;-42
2021/05/16 05:47:43;;;;;;;3.75;2.60;;;10.70;99.90;;;;;;5092476;28;20302;-39
2021/05/16 05:50:11;;;;;;;6.68;4.65;;;10.80;99.90;;;;;;5092673;28;20298;-40
2021/05/16 05:52:38;;;;;;;7.60;5.20;;;10.90;99.90;;;;;;5092761;28;20206;-39
2021/05/16 05:55:07;;;;;;;6.10;2.30;;;11.00;99.90;;;;;;5092514;28;20297;-40
2021/05/16 05:57:35;;;;;;;2.35;1.55;;;11.10;99.90;;;;;;5092368;28;20583;-40
2021/05/16 06:00:06;;;;;;;3.10;1.83;;;11.30;99.90;;;;;;5092130;28;20654;-40
2021/05/16 06:02:33;;;;;;;2.50;1.55;;;11.40;99.90;;;;;;5092509;28;20226;-42
2021/05/16 06:05:01;;;;;;;3.15;1.52;;;11.60;99.90;;;;;;5092276;28;20293;-39
2021/05/16 06:07:29;;;;;;;1.70;1.40;;;11.80;99.90;;;;;;5092272;28;20569;-39
2021/05/16 06:09:56;;;;;;;1.88;1.60;;;12.10;99.90;;;;;;5091983;28;20230;-41
2021/05/16 06:12:25;;;;;;;1.58;0.90;;;12.20;99.90;;;;;;5093250;28;20230;-37
2021/05/16 06:14:53;;;;;;;2.55;1.30;;;12.20;99.90;;;;;;5092538;28;20259;-40
2021/05/16 06:17:22;;;;;;;3.97;1.35;;;12.30;99.90;;;;;;5092089;28;20275;-39
2021/05/16 06:19:49;;;;;;;1.73;1.23;;;12.40;99.90;;;;;;5092191;28;20742;-40
2021/05/16 06:22:17;;;;;;;1.27;1.00;;;12.50;99.90;;;;;;5091796;28;20345;-39
2021/05/16 06:24:45;;;;;;;2.50;1.42;;;12.50;99.90;;;;;;5091780;28;20333;-40
2021/05/16 06:27:12;;;;;;;2.70;1.13;;;12.60;99.90;;;;;;5091744;28;20210;-39
2021/05/16 06:29:39;;;;;;;1.63;1.00;;;12.70;99.90;;;;;;5092147;28;20627;-40
2021/05/16 06:32:09;;;;;;;5.63;1.40;;;12.80;99.90;;;;;;5091858;28;20242;-40
2021/05/16 06:34:37;;;;;;;1.95;1.05;;;13.00;99.90;;;;;;5091801;28;20238;-40
2021/05/16 06:37:05;;;;;;;1.33;1.02;;;13.20;99.90;;;;;;5091437;28;20689;-40
2021/05/16 06:39:33;;;;;;;2.28;1.27;;;13.30;99.90;;;;;;5091553;28;20271;-40
2021/05/16 06:42:00;;;;;;;1.98;0.93;;;13.40;99.90;;;;;;5091507;28;20226;-39
2021/05/16 06:44:29;;;;;;;3.42;1.23;;;13.50;99.90;;;;;;5093076;28;20214;-40
2021/05/16 06:46:56;;;;;;;3.70;1.20;;;13.50;99.90;;;;;;5091738;28;20259;-40
2021/05/16 06:49:24;;;;;;;3.72;1.40;;;13.50;99.90;;;;;;5091677;28;20257;-39
2021/05/16 06:51:52;;;;;;;3.05;1.30;;;13.40;99.90;;;;;;5091555;28;20252;-43
2021/05/16 06:54:19;;;;;;;2.40;1.17;;;13.40;99.90;;;;;;5091310;28;20703;-39
2021/05/16 06:56:47;;;;;;;1.50;1.15;;;13.50;99.90;;;;;;5093040;28;20722;-39
2021/05/16 06:59:14;;;;;;;5.13;1.30;;;13.50;99.90;;;;;;5095187;28;20246;-39
2021/05/16 07:01:42;;;;;;;2.58;1.27;;;13.60;99.90;;;;;;5096473;28;20755;-39
2021/05/16 07:04:11;;;;;;;1.65;0.90;;;13.70;99.90;;;;;;5095190;28;20298;-39
2021/05/16 07:06:38;;;;;;;1.65;1.27;;;13.80;99.90;;;;;;5095165;28;20625;-39
2021/05/16 07:09:06;;;;;;;1.90;1.05;;;13.80;99.90;;;;;;5095305;28;20203;-40
2021/05/16 07:11:34;;;;;;;1.13;0.95;;;13.90;99.90;;;;;;5095062;28;20664;-39
2021/05/16 07:14:02;;;;;;;2.50;0.88;;;13.90;99.90;;;;;;5095061;28;20232;-39
2021/05/16 07:16:29;;;;;;;2.00;0.77;;;14.00;99.90;;;;;;5095037;28;20298;-40
2021/05/16 07:18:57;;;;;;;2.92;1.00;;;14.10;99.90;;;;;;5094898;28;20248;-39
2021/05/16 07:21:25;;;;;;;0.90;0.70;;;14.10;99.90;;;;;;5094745;28;20287;-41
2021/05/16 07:23:52;;;;;;;1.52;1.20;;;14.20;99.90;;;;;;5094806;28;20264;-39
2021/05/16 07:26:21;;;;;;;2.10;1.15;;;14.30;99.50;;;;;;5095082;28;20241;-39
2021/05/16 07:28:48;;;;;;;0.90;0.90;;;14.50;99.40;;;;;;5094727;28;20630;-39
2021/05/16 07:31:15;;;;;;;4.97;1.55;;;14.80;99.00;;;;;;5094844;28;20242;-39
2021/05/16 07:33:43;;;;;;;1.10;0.93;;;15.10;98.50;;;;;;5094700;28;20623;-41
2021/05/16 07:36:11;;;;;;;2.70;0.65;;;15.40;97.80;;;;;;5094836;28;20207;-42
2021/05/16 07:38:38;;;;;;;1.42;0.88;;;15.40;97.40;;;;;;5094850;28;20207;-41
2021/05/16 07:41:06;;;;;;;0.75;0.60;;;15.40;97.40;;;;;;5094523;28;20206;-41
2021/05/16 07:43:34;;;;;;;1.55;0.70;;;15.50;97.50;;;;;;5094907;28;20207;-41
2021/05/16 07:46:02;;;;;;;0.70;0.63;;;15.50;97.30;;;;;;5094513;28;20245;-41
2021/05/16 07:48:29;;;;;;;2.38;0.90;;;15.60;97.30;;;;;;5094717;28;20241;-41
2021/05/16 07:50:59;;;;;;;2.10;0.90;;;15.40;97.10;;;;;;5094516;28;20256;-41
2021/05/16 07:53:28;;;;;;;1.67;0.57;;;15.40;96.60;;;;;;5094438;28;20206;-41
2021/05/16 07:55:55;;;;;;;1.30;0.57;;;15.20;96.70;;;;;;5094237;28;20294;-41
2021/05/16 07:58:23;;;;;;;3.38;1.30;;;15.20;96.60;;;;;;5094107;28;20246;-40
2021/05/16 08:00:51;;;;;;;1.42;0.80;;;15.30;96.20;;;;;;5094275;28;20249;-40
2021/05/16 08:03:19;;;;;;;2.45;0.88;;;15.40;96.10;;;;;;5094365;28;20262;-40
2021/05/16 08:05:46;;;;;;;2.97;1.00;;;15.50;95.70;;;;;;5094428;28;20234;-40
2021/05/16 08:08:14;;;;;;;1.38;0.47;;;15.50;95.40;;;;;;5093900;28;20302;-41
2021/05/16 08:10:42;;;;;;;2.50;1.10;;;15.50;95.30;;;;;;5093785;28;20614;-40
2021/05/16 08:13:10;;;;;;;1.90;0.90;;;15.50;95.20;;;;;;5093919;28;20261;-41
2021/05/16 08:15:37;;;;;;;3.70;2.05;;;15.40;95.20;;;;;;5093833;28;20211;-39
2021/05/16 08:18:06;;;;;;;3.08;1.40;;;15.40;95.30;;;;;;5093932;28;20246;-39
2021/05/16 08:20:33;;;;;;;2.72;1.25;;;15.40;95.30;;;;;;5094157;28;20213;-40
2021/05/16 08:23:01;;;;;;;1.85;1.10;;;15.50;95.40;;;;;;5093730;28;20563;-40
2021/05/16 08:25:31;;;;;;;2.22;0.85;;;15.70;95.20;;;;;;5093639;28;20261;-40
2021/05/16 08:27:59;;;;;;;2.05;0.93;;;16.00;94.90;;;;;;5093688;28;20218;-41
2021/05/16 08:30:28;;;;;;;2.35;1.13;;;16.10;94.60;;;;;;5094555;28;20215;-39
2021/05/16 08:32:55;;;;;;;2.47;1.08;;;16.20;94.40;;;;;;5093455;28;20715;-40
2021/05/16 08:35:24;;;;;;;2.47;1.00;;;16.40;94.10;;;;;;5093810;28;20302;-40
2021/05/16 08:37:53;;;;;;;3.50;1.15;;;16.50;93.30;;;;;;5093315;28;20618;-40
2021/05/16 08:40:21;;;;;;;4.18;1.10;;;16.40;93.10;;;;;;5093214;28;20206;-39
2021/05/16 08:42:50;;;;;;;3.35;1.38;;;16.50;92.60;;;;;;5093066;28;20317;-39
2021/05/16 08:45:19;;;;;;;1.67;0.98;;;16.40;92.50;;;;;;5093014;28;20238;-40
2021/05/16 08:47:47;;;;;;;2.35;1.08;;;16.30;92.30;;;;;;5094206;28;20289;-41
2021/05/16 08:50:17;;;;;;;3.22;0.90;;;16.00;92.40;;;;;;5093262;28;20726;-40
2021/05/16 08:52:45;;;;;;;3.47;1.20;;;15.80;92.70;;;;;;5093742;28;20210;-41
2021/05/16 08:55:15;;;;;;;3.72;0.80;;;15.70;92.90;;;;;;5093246;28;20207;-39
2021/05/16 08:57:43;;;;;;;5.45;1.95;;;15.90;92.90;;;;;;5093180;28;20213;-40
2021/05/16 09:00:16;;;;;;;2.28;1.13;;;16.20;92.40;;;;;;5093039;28;20297;-40
2021/05/16 09:03:02;;;;;;;3.33;1.48;;;16.40;91.70;;;;;;5093234;28;20254;-39
2021/05/16 09:05:34;;;;;;;4.00;2.20;;;16.50;91.10;;;;;;5092842;28;20297;-40
2021/05/16 09:08:05;;;;;;;3.22;1.20;;;16.60;91.10;;;;;;5093039;28;20238;-39
2021/05/16 09:10:33;;;;;;;2.58;1.50;;;16.80;90.70;;;;;;5093108;28;20298;-39
2021/05/16 09:13:13;;;;;;;3.70;1.38;;;16.90;90.30;;;;;;5092740;28;20199;-40
2021/05/16 09:15:40;;;;;;;2.90;1.38;;;17.00;89.10;;;;;;5092850;28;20246;-40
2021/05/16 09:18:08;;;;;;;2.60;1.30;;;17.10;89.10;;;;;;5092741;28;20246;-38
2021/05/16 09:20:35;;;;;;;4.35;1.30;;;17.10;89.00;;;;;;5092422;28;20249;-37
2021/05/16 09:23:08;;;;;;;3.53;1.23;;;17.20;88.30;;;;;;5092578;28;20230;-38
2021/05/16 09:25:36;;;;;;;12.82;9.30;;;17.30;87.20;;;;;;5092163;28;20307;-39
2021/05/16 09:28:13;;;;;;;4.55;1.77;;;17.30;87.40;;;;;;5092241;28;20637;-39
2021/05/16 09:30:41;;;;;;;2.72;1.52;;;17.40;86.80;;;;;;5092311;28;20206;-41
2021/05/16 09:33:13;;;;;;;3.80;1.20;;;17.40;87.00;;;;;;5092511;28;20207;-42
2021/05/16 09:35:43;;;;;;;3.63;1.60;;;17.30;87.40;;;;;;5092608;28;20210;-41
2021/05/16 09:38:19;;;;;;;3.22;1.30;;;17.20;87.30;;;;;;5092360;28;20304;-41
2021/05/16 09:40:48;;;;;;;2.22;1.10;;;17.10;87.60;;;;;;5092337;28;20305;-41
2021/05/16 09:43:18;;;;;;;4.30;1.60;;;17.10;87.50;;;;;;5092498;28;20265;-39
2021/05/16 09:45:52;;;;;;;5.78;1.20;;;17.10;87.60;;;;;;5091942;28;20677;-39
2021/05/16 09:48:37;;;;;;;3.15;1.38;;;17.10;87.70;;;;;;5092024;28;20290;-39
2021/05/16 09:51:15;;;;;;;2.40;1.42;;;17.10;87.80;;;;;;5092304;28;20297;-46
2021/05/16 09:53:58;;;;;;;4.50;1.33;;;17.30;86.50;;;;;;5092096;28;20222;-42
2021/05/16 09:56:28;;;;;;;1.80;1.00;;;17.60;86.40;;;;;;5092036;28;20635;-39
2021/05/16 09:58:58;;;;;;;3.70;1.13;;;17.80;85.50;;;;;;5091188;28;20300;-41
2021/05/16 10:01:26;;;;;;;1.80;1.15;;;17.90;84.60;;;;;;5091612;28;20670;-39
2021/05/16 10:03:55;;;;;;;4.60;1.75;;;17.70;85.30;;;;;;5091538;28;20317;-40
2021/05/16 10:06:23;;;;;;;3.63;1.38;;;17.70;86.70;;;;;;5091889;28;20238;-40
2021/05/16 10:08:51;;;;;;;2.63;1.17;;;17.60;86.80;;;;;;5091824;28;20207;-39
2021/05/16 10:11:20;;;;;;;2.53;1.30;;;17.40;87.50;;;;;;5091398;28;20300;-40
2021/05/16 10:13:52;;;;;;;5.80;2.10;;;17.30;88.00;;;;;;5091681;28;20580;-40
2021/05/16 10:16:21;;;;;;;4.85;1.63;;;17.30;89.00;;;;;;5091378;28;20677;-40
2021/05/16 10:18:50;;;;;;;4.63;1.48;;;17.30;88.70;;;;;;5091957;28;20206;-40
2021/05/16 10:21:22;;;;;;;2.10;1.20;;;17.40;88.70;;;;;;5091356;28;20253;-40
2021/05/16 10:24:08;;;;;;;4.25;1.38;;;17.50;88.10;;;;;;5091174;28;20227;-40
2021/05/16 10:26:36;;;;;;;5.43;2.05;;;17.50;87.30;;;;;;5091498;28;20246;-39
2021/05/16 10:29:06;;;;;;;2.72;1.27;;;17.40;88.00;;;;;;5091353;28;20263;-39
2021/05/16 10:31:51;;;;;;;2.95;1.50;;;17.40;88.00;;;;;;5092810;28;20210;-41
2021/05/16 10:34:52;;;;;;;6.28;1.80;;;17.60;86.70;;;;;;5095793;28;20297;-40
2021/05/16 10:37:51;;;;;;;3.28;1.42;;;17.90;85.20;;;;;;5095557;28;20241;-40
2021/05/16 10:40:28;;;;;;;3.03;1.67;;;18.10;83.20;;;;;;5095408;28;20660;-40
2021/05/16 10:42:56;;;;;;;3.40;1.35;;;18.20;82.20;;;;;;5095480;28;20316;-39
2021/05/16 10:45:32;;;;;;;2.88;1.10;;;18.40;82.10;;;;;;5096217;28;20241;-40
2021/05/16 10:48:08;;;;;;;3.03;1.48;;;18.60;80.70;;;;;;5095451;28;20228;-41
2021/05/16 10:50:55;;;;;;;2.90;1.27;;;18.90;79.10;;;;;;5095473;28;20301;-40
2021/05/16 10:53:30;;;;;;;2.75;1.40;;;19.10;78.50;;;;;;5095499;28;20255;-39
2021/05/16 10:56:19;;;;;;;3.33;1.35;;;19.10;77.80;;;;;;5095434;28;20253;-40
2021/05/16 10:58:55;;;;;;;3.67;1.70;;;19.00;76.50;;;;;;5095483;28;20280;-40
2021/05/16 11:01:35;;;;;;;4.22;1.38;;;18.90;76.90;;;;;;5095478;28;20289;-40
2021/05/16 11:04:04;;;;;;;1.92;1.42;;;18.70;77.00;;;;;;5095037;28;20317;-39
2021/05/16 11:07:00;;;;;;;1.98;1.10;;;18.60;78.00;;;;;;5095063;28;20234;-39
2021/05/16 11:09:35;;;;;;;2.75;1.00;;;18.40;77.10;;;;;;5094947;28;20252;-40
2021/05/16 11:12:05;;;;;;;4.15;1.30;;;18.10;78.40;;;;;;5095177;28;20207;-40
2021/05/16 11:14:38;;;;;;;2.35;1.38;;;17.80;79.70;;;;;;5094946;28;20207;-40
2021/05/16 11:17:16;;;;;;;2.65;1.20;;;17.40;84.30;;;;;;5094801;28;20744;-40
2021/05/16 11:19:47;;;;;;;3.90;1.55;;;16.90;90.00;;;;;;5095005;28;20253;-40
2021/05/16 11:22:16;;;;;;;2.50;1.60;;;16.50;91.50;;;;;;5094959;28;20206;-41
2021/05/16 11:24:46;;;;;;;3.78;1.45;;;16.30;92.40;;;;;;5094069;28;20238;-39
2021/05/16 11:27:23;;;;;;;3.58;1.60;;;16.10;93.80;;;;;;5093307;28;20253;-39
2021/05/16 11:29:52;;;;;;;2.83;1.52;;;16.00;94.70;;;;;;5093609;28;20234;-40
2021/05/16 11:32:28;;;;;;;2.70;1.17;;;15.90;95.50;;;;;;5093442;28;20206;-40
2021/05/16 11:35:21;;;;;;;2.67;1.48;;;16.00;95.70;;;;;;5093510;28;20263;-40
2021/05/16 11:37:51;;;;;;;3.45;1.40;;;16.10;95.90;;;;;;5083575;28;20245;-40
2021/05/16 11:40:37;;;;;;;3.08;1.33;;;16.30;95.80;;;;;;5093465;28;20298;-40
2021/05/16 11:43:09;;;;;;;3.72;1.23;;;16.60;95.70;;;;;;5092925;28;20280;-40
2021/05/16 11:45:39;;;;;;;1.67;1.33;;;16.90;94.50;;;;;;5093299;28;20206;-43
2021/05/16 11:48:07;;;;;;;4.72;1.80;;;17.30;93.50;;;;;;5092926;28;20236;-40
2021/05/16 11:50:40;;;;;;;3.35;1.20;;;17.50;93.10;;;;;;5093185;28;20234;-39
2021/05/16 11:53:08;;;;;;;3.53;1.17;;;17.60;92.40;;;;;;5093283;28;20621;-40
2021/05/16 11:55:35;;;;;;;4.20;1.50;;;17.70;92.00;;;;;;5092903;28;20293;-41
2021/05/16 11:58:04;;;;;;;2.63;1.25;;;17.80;91.50;;;;;;5092894;28;20206;-40
2021/05/16 12:00:32;;;;;;;2.05;0.90;;;18.10;90.90;;;;;;5093122;28;20210;-43
2021/05/16 12:03:14;;;;;;;2.25;1.13;;;18.30;90.00;;;;;;5093145;28;20721;-43
2021/05/16 12:05:43;;;;;;;2.72;1.10;;;18.40;88.50;;;;;;5093962;28;20210;-40
2021/05/16 12:08:19;;;;;;;4.93;1.48;;;18.50;88.30;;;;;;5093044;28;20367;-39
2021/05/16 12:11:06;;;;;;;4.32;1.45;;;18.80;88.10;;;;;;5093804;28;20309;-40
2021/05/16 12:13:35;;;;;;;2.60;0.95;;;19.20;87.00;;;;;;5093065;28;20217;-40
2021/05/16 12:16:17;;;;;;;1.85;1.27;;;19.40;84.60;;;;;;5092997;28;20253;-40
2021/05/16 12:18:46;;;;;;;5.65;1.35;;;19.60;79.30;;;;;;5092992;28;20633;-39
2021/05/16 12:21:14;;;;;;;0.80;0.80;;;19.50;80.00;;;;;;5092880;28;20230;-40
2021/05/16 12:26:25;;;;;;;2.33;1.35;;;19.40;78.90;;;;;;5130252;27;20726;-41
2021/05/16 12:28:54;;;;;;;1.98;0.85;;;19.30;76.30;;;;;;5109747;28;20259;-39
2021/05/16 12:31:22;;;;;;;1.70;0.90;;;19.20;75.60;;;;;;5109542;28;20256;-38
2021/05/16 12:33:51;;;;;;;2.55;0.90;;;19.30;75.10;;;;;;5109449;28;20567;-39
2021/05/16 12:36:20;;;;;;;3.42;1.00;;;19.50;74.20;;;;;;5109569;28;20202;-42
2021/05/16 12:38:51;;;;;;;4.22;1.13;;;19.50;73.50;;;;;;5109597;28;20220;-40
2021/05/16 12:41:22;;;;;;;2.60;0.85;;;19.60;72.40;;;;;;5109335;28;20287;-40
2021/05/16 12:44:09;;;;;;;1.80;0.90;;;19.70;70.80;;;;;;5109156;28;20629;-40
2021/05/16 12:46:41;;;;;;;5.38;1.25;;;19.70;69.80;;;;;;5109416;28;20294;-39
2021/05/16 12:49:09;;;;;;;3.10;1.17;;;20.00;70.00;;;;;;5108873;28;20206;-39
2021/05/16 12:51:37;;;;;;;1.83;0.98;;;20.10;68.70;;;;;;5108866;28;20510;-39
2021/05/16 12:54:26;;;;;;;2.28;1.10;;;20.00;68.50;;;;;;5109030;28;20213;-39
2021/05/16 12:56:56;;;;;;;1.60;1.08;;;19.90;67.70;;;;;;5104537;28;20210;-39
2021/05/16 12:59:27;;;;;;;2.85;1.25;;;19.80;68.50;;;;;;5108826;28;20209;-40
2021/05/16 13:02:12;;;;;;;2.83;0.93;;;19.90;68.40;;;;;;5109100;28;20237;-40
2021/05/16 13:04:47;;;;;;;3.03;1.23;;;20.10;67.60;;;;;;5108793;28;20663;-40
2021/05/16 13:07:34;;;;;;;1.20;0.73;;;20.30;66.50;;;;;;5108552;28;20301;-42